createdAt,value
2018-01-18T00:00:52.170Z,3.59
2018-01-18T00:01:52.411Z,3.61
2018-01-18T00:02:52.399Z,3.63
2018-01-18T00:03:52.484Z,3.63
2018-01-18T00:04:52.004Z,3.62
2018-01-18T00:05:52.129Z,3.61
2018-01-18T00:06:51.927Z,3.63
2018-01-18T00:07:52.193Z,3.59
2018-01-18T00:08:53.359Z,3.59
2018-01-18T00:09:52.421Z,3.61
2018-01-18T00:10:51.806Z,3.61
2018-01-18T00:11:52.031Z,3.6
2018-01-18T00:12:51.689Z,3.57
2018-01-18T00:13:51.750Z,3.56
2018-01-18T00:14:51.986Z,3.57
2018-01-18T00:15:52.197Z,3.56
2018-01-18T00:16:51.944Z,3.56
2018-01-18T00:17:52.330Z,3.53
2018-01-18T00:18:52.450Z,3.49
2018-01-18T00:19:51.942Z,3.46
2018-01-18T00:20:51.735Z,3.5
2018-01-18T00:21:51.848Z,3.51
2018-01-18T00:22:52.088Z,3.5
2018-01-18T00:23:52.217Z,3.48
2018-01-18T00:24:52.477Z,3.49
2018-01-18T00:25:52.178Z,3.45
2018-01-18T00:26:52.070Z,3.47
2018-01-18T00:27:52.030Z,3.45
2018-01-18T00:28:52.112Z,3.43
2018-01-18T00:29:52.271Z,3.42
2018-01-18T00:30:51.967Z,3.45
2018-01-18T00:31:52.006Z,3.46
2018-01-18T00:32:52.128Z,3.45
2018-01-18T00:33:51.954Z,3.46
2018-01-18T00:34:52.602Z,3.45
2018-01-18T00:35:52.018Z,3.45
2018-01-18T00:36:52.152Z,3.46
2018-01-18T00:37:52.606Z,3.45
2018-01-18T00:38:52.001Z,3.46
2018-01-18T00:39:51.891Z,3.43
2018-01-18T00:40:52.206Z,3.43
2018-01-18T00:41:52.403Z,3.45
2018-01-18T00:42:51.873Z,3.45
2018-01-18T00:43:52.473Z,3.46
2018-01-18T00:44:52.196Z,3.44
2018-01-18T00:45:52.346Z,3.42
2018-01-18T00:46:52.494Z,3.44
2018-01-18T00:47:51.758Z,3.46
2018-01-18T00:48:51.831Z,3.46
2018-01-18T00:49:52.026Z,3.47
2018-01-18T00:50:51.982Z,3.5
2018-01-18T00:51:51.949Z,3.47
2018-01-18T00:52:51.806Z,3.49
2018-01-18T00:53:52.094Z,3.47
2018-01-18T00:54:51.973Z,3.47
2018-01-18T00:55:53.122Z,3.49
2018-01-18T00:56:51.789Z,3.49
2018-01-18T00:57:52.106Z,3.5
2018-01-18T00:58:52.805Z,3.53
2018-01-18T00:59:51.761Z,3.56
2018-01-18T01:00:52.247Z,3.53
2018-01-18T01:01:52.070Z,3.52
2018-01-18T01:02:52.128Z,3.53
2018-01-18T01:03:52.432Z,3.54
2018-01-18T01:04:51.755Z,3.53
2018-01-18T01:05:52.136Z,3.52
2018-01-18T01:06:52.083Z,3.54
2018-01-18T01:07:51.914Z,3.57
2018-01-18T01:08:52.016Z,3.57
2018-01-18T01:09:51.764Z,3.58
2018-01-18T01:10:51.875Z,3.62
2018-01-18T01:11:51.881Z,3.61
2018-01-18T01:12:52.310Z,3.62
2018-01-18T01:13:52.175Z,3.61
2018-01-18T01:14:52.211Z,3.62
2018-01-18T01:15:52.417Z,3.6
2018-01-18T01:16:52.476Z,3.59
2018-01-18T01:17:52.269Z,3.61
2018-01-18T01:18:52.125Z,3.61
2018-01-18T01:19:52.414Z,3.64
2018-01-18T01:20:52.344Z,3.63
2018-01-18T01:21:52.451Z,3.64
2018-01-18T01:22:51.994Z,3.65
2018-01-18T01:23:52.041Z,3.68
2018-01-18T01:24:52.162Z,3.64
2018-01-18T01:25:52.404Z,3.68
2018-01-18T01:26:52.081Z,3.66
2018-01-18T01:27:52.210Z,3.69
2018-01-18T01:28:52.150Z,3.65
2018-01-18T01:29:52.439Z,3.66
2018-01-18T01:30:52.147Z,3.66
2018-01-18T01:31:52.018Z,3.66
2018-01-18T01:32:52.292Z,3.67
2018-01-18T01:33:52.313Z,3.66
2018-01-18T01:34:51.926Z,3.66
2018-01-18T01:35:52.050Z,3.67
2018-01-18T01:36:53.313Z,3.68
2018-01-18T01:37:52.200Z,3.65
2018-01-18T01:38:52.784Z,3.64
2018-01-18T01:39:53.977Z,3.64
2018-01-18T01:40:52.857Z,3.64
2018-01-18T01:41:52.257Z,3.65
2018-01-18T01:42:52.093Z,3.64
2018-01-18T01:43:52.412Z,3.63
2018-01-18T01:44:52.138Z,3.63
2018-01-18T01:45:52.632Z,3.64
2018-01-18T01:46:52.733Z,3.65
2018-01-18T01:47:51.912Z,3.65
2018-01-18T01:48:52.879Z,3.65
2018-01-18T01:49:52.245Z,3.65
2018-01-18T01:50:52.478Z,3.67
2018-01-18T01:51:53.339Z,3.69
2018-01-18T01:52:52.366Z,3.7
2018-01-18T01:53:52.144Z,3.69
2018-01-18T01:54:52.147Z,3.69
2018-01-18T01:55:52.134Z,3.67
2018-01-18T01:56:51.287Z,3.7
2018-01-18T01:57:51.185Z,3.7
2018-01-18T01:58:51.927Z,3.69
2018-01-18T01:59:51.138Z,3.7
2018-01-18T02:00:52.300Z,3.7
2018-01-18T02:01:51.810Z,3.69
2018-01-18T02:02:51.566Z,3.68
2018-01-18T02:03:51.818Z,3.67
2018-01-18T02:04:52.926Z,3.69
2018-01-18T02:05:51.438Z,3.7
2018-01-18T02:06:52.085Z,3.7
2018-01-18T02:07:51.062Z,3.69
2018-01-18T02:08:51.920Z,3.71
2018-01-18T02:09:52.601Z,3.7
2018-01-18T02:10:51.162Z,3.7
2018-01-18T02:11:51.696Z,3.7
2018-01-18T02:12:51.713Z,3.71
2018-01-18T02:13:51.911Z,3.69
2018-01-18T02:14:51.225Z,3.72
2018-01-18T02:15:51.332Z,3.72
2018-01-18T02:16:52.874Z,3.71
2018-01-18T02:17:51.386Z,3.73
2018-01-18T02:18:51.014Z,3.74
2018-01-18T02:19:51.910Z,3.73
2018-01-18T02:20:52.191Z,3.72
2018-01-18T02:21:51.786Z,3.75
2018-01-18T02:22:50.904Z,3.76
2018-01-18T02:23:51.151Z,3.73
2018-01-18T02:24:51.126Z,3.76
2018-01-18T02:25:51.292Z,3.74
2018-01-18T02:26:51.478Z,3.77
2018-01-18T02:27:51.793Z,3.78
2018-01-18T02:28:51.330Z,3.78
2018-01-18T02:29:51.502Z,3.78
2018-01-18T02:30:52.363Z,3.78
2018-01-18T02:31:52.020Z,3.78
2018-01-18T02:32:51.129Z,3.78
2018-01-18T02:33:51.436Z,3.79
2018-01-18T02:34:51.425Z,3.78
2018-01-18T02:35:51.387Z,3.79
2018-01-18T02:36:51.514Z,3.79
2018-01-18T02:37:52.214Z,3.79
2018-01-18T02:38:52.195Z,3.76
2018-01-18T02:39:52.563Z,3.78
2018-01-18T02:40:51.517Z,3.78
2018-01-18T02:41:51.078Z,3.77
2018-01-18T02:42:51.745Z,3.78
2018-01-18T02:43:51.420Z,3.78
2018-01-18T02:44:51.617Z,3.81
2018-01-18T02:45:51.572Z,3.79
2018-01-18T02:46:51.310Z,3.79
2018-01-18T02:47:51.407Z,3.79
2018-01-18T02:48:51.248Z,3.8
2018-01-18T02:49:51.845Z,3.79
2018-01-18T02:50:50.953Z,3.79
2018-01-18T02:51:52.035Z,3.81
2018-01-18T02:52:52.730Z,3.81
2018-01-18T02:53:52.806Z,3.82
2018-01-18T02:54:51.992Z,3.83
2018-01-18T02:55:52.035Z,3.81
2018-01-18T02:56:51.273Z,3.82
2018-01-18T02:57:51.898Z,3.83
2018-01-18T02:58:51.500Z,3.84
2018-01-18T02:59:54.506Z,3.82
2018-01-18T03:00:51.178Z,3.83
2018-01-18T03:01:51.623Z,3.84
2018-01-18T03:02:51.719Z,3.84
2018-01-18T03:03:51.809Z,3.85
2018-01-18T03:04:51.561Z,3.86
2018-01-18T03:05:51.250Z,3.85
2018-01-18T03:06:51.396Z,3.85
2018-01-18T03:07:51.871Z,3.85
2018-01-18T03:08:51.270Z,3.85
2018-01-18T03:09:51.381Z,3.85
2018-01-18T03:10:51.549Z,3.85
2018-01-18T03:11:52.377Z,3.86
2018-01-18T03:12:52.275Z,3.88
2018-01-18T03:13:51.193Z,3.89
2018-01-18T03:14:54.015Z,3.89
2018-01-18T03:15:51.437Z,3.9
2018-01-18T03:16:51.170Z,3.91
2018-01-18T03:17:52.247Z,3.92
2018-01-18T03:18:52.137Z,3.93
2018-01-18T03:19:51.231Z,3.92
2018-01-18T03:20:51.667Z,3.91
2018-01-18T03:21:52.078Z,3.94
2018-01-18T03:22:51.914Z,3.94
2018-01-18T03:23:51.458Z,3.92
2018-01-18T03:24:51.271Z,3.94
2018-01-18T03:25:51.174Z,3.95
2018-01-18T03:26:52.481Z,3.95
2018-01-18T03:27:51.578Z,3.95
2018-01-18T03:28:51.610Z,3.95
2018-01-18T03:29:50.943Z,3.95
2018-01-18T03:30:51.844Z,3.96
2018-01-18T03:31:51.705Z,3.97
2018-01-18T03:32:50.916Z,3.97
2018-01-18T03:33:51.210Z,3.96
2018-01-18T03:34:51.330Z,3.97
2018-01-18T03:35:51.200Z,3.97
2018-01-18T03:36:52.138Z,3.98
2018-01-18T03:37:51.456Z,3.98
2018-01-18T03:38:51.258Z,4.01
2018-01-18T03:39:51.059Z,3.99
2018-01-18T03:40:51.201Z,4.02
2018-01-18T03:41:51.690Z,4.02
2018-01-18T03:42:51.464Z,4.03
2018-01-18T03:43:51.043Z,4.03
2018-01-18T03:44:51.819Z,4.04
2018-01-18T03:45:51.586Z,4.03
2018-01-18T03:48:51.007Z,4.08
2018-01-18T03:49:51.164Z,4.07
2018-01-18T03:50:52.130Z,4.07
2018-01-18T03:51:51.691Z,4.08
2018-01-18T03:52:52.404Z,4.07
2018-01-18T03:53:52.295Z,4.09
2018-01-18T03:54:52.355Z,4.09
2018-01-18T03:55:52.599Z,4.11
2018-01-18T03:56:52.353Z,4.13
2018-01-18T03:57:52.152Z,4.14
2018-01-18T03:58:52.313Z,4.15
2018-01-18T03:59:51.852Z,4.13
2018-01-18T04:00:52.337Z,4.14
2018-01-18T04:01:52.875Z,4.13
2018-01-18T04:02:53.129Z,4.15
2018-01-18T04:03:51.782Z,4.13
2018-01-18T04:04:52.448Z,4.17
2018-01-18T04:05:52.608Z,4.16
2018-01-18T04:06:52.346Z,4.16
2018-01-18T04:07:52.415Z,4.16
2018-01-18T04:08:52.310Z,4.16
2018-01-18T04:09:52.483Z,4.17
2018-01-18T04:10:52.101Z,4.17
2018-01-18T04:11:52.399Z,4.17
2018-01-18T04:12:52.645Z,4.19
2018-01-18T04:13:52.524Z,4.17
2018-01-18T04:14:53.850Z,4.17
2018-01-18T04:15:52.396Z,4.19
2018-01-18T04:16:52.876Z,4.2
2018-01-18T04:17:52.093Z,4.2
2018-01-18T04:18:52.337Z,4.19
2018-01-18T04:19:52.944Z,4.19
2018-01-18T04:20:52.478Z,4.19
2018-01-18T04:21:52.895Z,4.2
2018-01-18T04:22:53.063Z,4.2
2018-01-18T04:23:52.098Z,4.18
2018-01-18T04:24:52.597Z,4.16
2018-01-18T04:25:52.555Z,4.16
2018-01-18T04:26:52.609Z,4.18
2018-01-18T04:27:52.442Z,4.18
2018-01-18T04:28:53.370Z,4.19
2018-01-18T04:29:52.727Z,4.15
2018-01-18T04:30:52.896Z,4.15
2018-01-18T04:31:53.508Z,4.13
2018-01-18T04:32:52.151Z,4.11
2018-01-18T04:33:52.857Z,4.13
2018-01-18T04:34:52.817Z,4.09
2018-01-18T04:35:52.395Z,4.09
2018-01-18T04:36:52.314Z,4.08
2018-01-18T04:37:52.268Z,4.08
2018-01-18T04:38:52.766Z,4.08
2018-01-18T04:39:53.495Z,4.08
2018-01-18T04:40:52.581Z,4.08
2018-01-18T04:41:52.273Z,4.08
2018-01-18T04:42:52.620Z,4.08
2018-01-18T04:43:52.615Z,4.04
2018-01-18T04:44:52.541Z,4.05
2018-01-18T04:45:53.511Z,4.05
2018-01-18T04:46:52.299Z,4.06
2018-01-18T04:47:53.272Z,4.02
2018-01-18T04:48:54.024Z,4.03
2018-01-18T04:49:52.421Z,4.02
2018-01-18T04:50:52.512Z,3.98
2018-01-18T04:51:52.788Z,4.01
2018-01-18T04:52:52.243Z,4
2018-01-18T04:53:52.224Z,4.01
2018-01-18T04:54:52.236Z,4
2018-01-18T04:55:52.719Z,3.98
2018-01-18T04:56:52.510Z,3.97
2018-01-18T04:57:52.287Z,3.98
2018-01-18T04:58:52.287Z,3.98
2018-01-18T04:59:52.691Z,3.99
2018-01-18T05:00:52.345Z,3.97
2018-01-18T05:01:52.975Z,3.97
2018-01-18T05:02:52.657Z,3.97
2018-01-18T05:03:53.027Z,3.97
2018-01-18T05:04:53.396Z,3.97
2018-01-18T05:05:52.257Z,3.98
2018-01-18T05:06:52.851Z,4.01
2018-01-18T05:07:54.493Z,4
2018-01-18T05:08:52.365Z,4.01
2018-01-18T05:09:53.312Z,3.99
2018-01-18T05:10:52.342Z,4
2018-01-18T05:11:52.746Z,3.97
2018-01-18T05:12:52.445Z,4.01
2018-01-18T05:13:53.288Z,3.99
2018-01-18T05:14:52.577Z,4.01
2018-01-18T05:15:52.888Z,3.97
2018-01-18T05:16:52.820Z,3.99
2018-01-18T05:17:52.710Z,3.98
2018-01-18T05:18:52.434Z,4.01
2018-01-18T05:19:52.252Z,4.02
2018-01-18T05:20:53.024Z,4.01
2018-01-18T05:21:53.607Z,3.99
2018-01-18T05:22:52.969Z,3.99
2018-01-18T05:23:52.753Z,4.02
2018-01-18T05:24:53.076Z,4.02
2018-01-18T05:25:52.723Z,4.01
2018-01-18T05:26:52.506Z,3.99
2018-01-18T05:27:52.694Z,4.02
2018-01-18T05:28:52.981Z,4.02
2018-01-18T05:29:52.884Z,4.02
2018-01-18T05:30:53.031Z,4.02
2018-01-18T05:31:52.744Z,4.02
2018-01-18T05:32:52.750Z,4
2018-01-18T05:33:52.082Z,4.01
2018-01-18T05:34:52.903Z,3.99
2018-01-18T05:35:52.632Z,4
2018-01-18T05:36:52.017Z,4
2018-01-18T05:37:52.399Z,3.98
2018-01-18T05:38:52.848Z,3.98
2018-01-18T05:39:52.530Z,3.99
2018-01-18T05:40:52.409Z,3.98
2018-01-18T05:41:52.520Z,3.98
2018-01-18T05:42:52.500Z,4
2018-01-18T05:43:51.930Z,3.98
2018-01-18T05:44:53.012Z,3.99
2018-01-18T05:45:52.686Z,3.98
2018-01-18T05:46:53.536Z,3.99
2018-01-18T05:47:54.358Z,4
2018-01-18T05:48:53.551Z,3.98
2018-01-18T05:49:52.270Z,4.01
2018-01-18T05:50:52.211Z,4.01
2018-01-18T05:51:52.713Z,4.01
2018-01-18T05:52:52.439Z,4.01
2018-01-18T05:53:52.634Z,4.01
2018-01-18T05:54:52.878Z,3.99
2018-01-18T05:55:53.420Z,3.97
2018-01-18T05:56:52.707Z,3.98
2018-01-18T05:57:52.790Z,3.97
2018-01-18T05:58:51.973Z,3.98
2018-01-18T05:59:51.483Z,3.97
2018-01-18T06:00:51.526Z,3.97
2018-01-18T06:01:52.364Z,3.97
2018-01-18T06:02:52.156Z,3.96
2018-01-18T06:03:52.886Z,3.97
2018-01-18T06:04:51.394Z,3.96
2018-01-18T06:05:51.760Z,3.95
2018-01-18T06:06:52.106Z,3.95
2018-01-18T06:07:51.701Z,3.95
2018-01-18T06:08:53.098Z,3.94
2018-01-18T06:09:52.443Z,3.93
2018-01-18T06:10:53.121Z,3.93
2018-01-18T06:11:51.532Z,3.95
2018-01-18T06:12:51.584Z,3.92
2018-01-18T06:13:51.722Z,3.9
2018-01-18T06:14:51.508Z,3.9
2018-01-18T06:15:51.922Z,3.9
2018-01-18T06:16:52.697Z,3.91
2018-01-18T06:17:51.285Z,3.93
2018-01-18T06:18:51.584Z,3.93
2018-01-18T06:19:52.079Z,3.91
2018-01-18T06:20:51.330Z,3.92
2018-01-18T06:21:51.628Z,3.95
2018-01-18T06:22:51.890Z,3.92
2018-01-18T06:23:51.255Z,3.93
2018-01-18T06:24:52.369Z,3.96
2018-01-18T06:25:51.785Z,3.96
2018-01-18T06:26:51.642Z,3.97
2018-01-18T06:27:52.169Z,3.97
2018-01-18T06:28:52.407Z,3.97
2018-01-18T06:29:51.687Z,3.98
2018-01-18T06:30:52.253Z,4
2018-01-18T06:31:52.439Z,3.98
2018-01-18T06:32:51.471Z,3.98
2018-01-18T06:33:53.491Z,3.98
2018-01-18T06:34:53.080Z,3.97
2018-01-18T06:35:51.381Z,4
2018-01-18T06:36:51.567Z,4.01
2018-01-18T06:37:51.829Z,4.02
2018-01-18T06:38:51.424Z,4.02
2018-01-18T06:39:51.459Z,4.03
2018-01-18T06:40:52.204Z,4.04
2018-01-18T06:41:52.776Z,4.04
2018-01-18T06:42:52.473Z,4.05
2018-01-18T06:43:51.360Z,4.08
2018-01-18T06:44:53.453Z,4.05
2018-01-18T06:45:52.510Z,4.08
2018-01-18T06:46:51.493Z,4.08
2018-01-18T06:47:53.834Z,4.08
2018-01-18T06:48:52.202Z,4.09
2018-01-18T06:49:54.183Z,4.09
2018-01-18T06:50:52.831Z,4.08
2018-01-18T06:51:51.534Z,4.08
2018-01-18T06:52:51.501Z,4.1
2018-01-18T06:53:51.273Z,4.1
2018-01-18T06:54:51.557Z,4.1
2018-01-18T06:55:51.430Z,4.09
2018-01-18T06:56:51.398Z,4.1
2018-01-18T06:57:51.414Z,4.09
2018-01-18T06:58:51.579Z,4.1
2018-01-18T06:59:51.668Z,4.11
2018-01-18T07:00:51.480Z,4.11
2018-01-18T07:01:51.404Z,4.14
2018-01-18T07:02:51.614Z,4.12
2018-01-18T07:03:51.352Z,4.15
2018-01-18T07:04:51.684Z,4.15
2018-01-18T07:05:51.672Z,4.15
2018-01-18T07:06:51.545Z,4.14
2018-01-18T07:07:51.489Z,4.15
2018-01-18T07:08:51.443Z,4.16
2018-01-18T07:09:51.428Z,4.15
2018-01-18T07:10:51.457Z,4.16
2018-01-18T07:11:51.510Z,4.16
2018-01-18T07:12:51.439Z,4.16
2018-01-18T07:13:51.296Z,4.16
2018-01-18T07:14:51.474Z,4.17
2018-01-18T07:15:51.526Z,4.17
2018-01-18T07:16:51.459Z,4.2
2018-01-18T07:17:51.530Z,4.18
2018-01-18T07:18:51.489Z,4.21
2018-01-18T07:19:51.378Z,4.21
2018-01-18T07:20:51.558Z,4.21
2018-01-18T07:21:51.497Z,4.22
2018-01-18T07:22:51.615Z,4.22
2018-01-18T07:23:51.446Z,4.22
2018-01-18T07:24:51.336Z,4.24
2018-01-18T07:25:52.212Z,4.25
2018-01-18T07:26:51.417Z,4.23
2018-01-18T07:27:51.340Z,4.27
2018-01-18T07:28:51.409Z,4.25
2018-01-18T07:29:51.453Z,4.27
2018-01-18T07:30:51.498Z,4.26
2018-01-18T07:31:51.482Z,4.26
2018-01-18T07:32:51.472Z,4.26
2018-01-18T07:33:51.480Z,4.28
2018-01-18T07:34:51.428Z,4.29
2018-01-18T07:35:51.348Z,4.3
2018-01-18T07:36:51.730Z,4.31
2018-01-18T07:37:51.378Z,4.3
2018-01-18T07:38:51.269Z,4.33
2018-01-18T07:39:51.522Z,4.35
2018-01-18T07:40:51.678Z,4.35
2018-01-18T07:41:51.484Z,4.33
2018-01-18T07:42:51.381Z,4.33
2018-01-18T07:43:51.449Z,4.31
2018-01-18T07:44:51.567Z,4.34
2018-01-18T07:45:51.401Z,4.35
2018-01-18T07:46:51.464Z,4.35
2018-01-18T07:47:51.598Z,4.37
2018-01-18T07:48:51.536Z,4.35
2018-01-18T07:49:51.534Z,4.36
2018-01-18T07:50:51.610Z,4.36
2018-01-18T07:51:51.393Z,4.39
2018-01-18T07:52:51.507Z,4.39
2018-01-18T07:53:51.719Z,4.4
2018-01-18T07:54:51.943Z,4.41
2018-01-18T07:55:51.732Z,4.42
2018-01-18T07:56:51.545Z,4.42
2018-01-18T07:57:51.757Z,4.45
2018-01-18T07:58:52.049Z,4.43
2018-01-18T07:59:51.629Z,4.43
2018-01-18T08:00:51.496Z,4.43
2018-01-18T08:01:52.015Z,4.43
2018-01-18T08:02:51.586Z,4.46
2018-01-18T08:03:51.605Z,4.47
2018-01-18T08:04:51.675Z,4.48
2018-01-18T08:05:51.532Z,4.49
2018-01-18T08:06:51.575Z,4.52
2018-01-18T08:07:51.506Z,4.52
2018-01-18T08:08:51.525Z,4.53
2018-01-18T08:09:51.732Z,4.52
2018-01-18T08:10:51.634Z,4.5
2018-01-18T08:11:51.813Z,4.52
2018-01-18T08:12:51.422Z,4.52
2018-01-18T08:13:51.650Z,4.52
2018-01-18T08:14:51.771Z,4.54
2018-01-18T08:15:51.700Z,4.54
2018-01-18T08:16:51.671Z,4.55
2018-01-18T08:17:51.485Z,4.58
2018-01-18T08:18:51.823Z,4.59
2018-01-18T08:19:51.938Z,4.59
2018-01-18T08:20:51.596Z,4.6
2018-01-18T08:21:51.633Z,4.6
2018-01-18T08:22:51.669Z,4.6
2018-01-18T08:23:51.688Z,4.61
2018-01-18T08:24:51.460Z,4.66
2018-01-18T08:25:51.538Z,4.67
2018-01-18T08:26:51.792Z,4.67
2018-01-18T08:27:51.655Z,4.67
2018-01-18T08:28:51.707Z,4.67
2018-01-18T08:29:51.817Z,4.67
2018-01-18T08:30:51.741Z,4.66
2018-01-18T08:31:51.949Z,4.68
2018-01-18T08:32:51.972Z,4.71
2018-01-18T08:33:51.519Z,4.71
2018-01-18T08:34:51.589Z,4.71
2018-01-18T08:35:51.669Z,4.71
2018-01-18T08:36:51.724Z,4.71
2018-01-18T08:37:51.469Z,4.72
2018-01-18T08:38:51.751Z,4.72
2018-01-18T08:39:51.745Z,4.72
2018-01-18T08:40:51.702Z,4.72
2018-01-18T08:41:51.553Z,4.72
2018-01-18T08:42:51.709Z,4.74
2018-01-18T08:43:51.645Z,4.73
2018-01-18T08:44:51.482Z,4.76
2018-01-18T08:45:52.429Z,4.74
2018-01-18T08:46:51.676Z,4.76
2018-01-18T08:47:51.451Z,4.75
2018-01-18T08:48:51.721Z,4.77
2018-01-18T08:49:51.743Z,4.78
2018-01-18T08:50:52.128Z,4.78
2018-01-18T08:51:51.562Z,4.79
2018-01-18T08:52:51.572Z,4.82
2018-01-18T08:53:51.649Z,4.81
2018-01-18T08:54:51.673Z,4.87
2018-01-18T08:55:51.694Z,4.85
2018-01-18T08:56:51.738Z,4.88
2018-01-18T08:57:51.657Z,4.9
2018-01-18T08:58:51.729Z,4.9
2018-01-18T08:59:51.685Z,4.9
2018-01-18T09:00:51.753Z,4.92
2018-01-18T09:01:51.748Z,4.94
2018-01-18T09:02:51.856Z,4.93
2018-01-18T09:03:51.918Z,4.95
2018-01-18T09:04:51.816Z,4.95
2018-01-18T09:05:51.838Z,4.96
2018-01-18T09:06:51.841Z,4.98
2018-01-18T09:07:51.741Z,4.99
2018-01-18T09:08:51.697Z,5.01
2018-01-18T09:09:51.623Z,5.08
2018-01-18T09:10:51.791Z,5.1
2018-01-18T09:11:51.956Z,5.11
2018-01-18T09:12:51.716Z,5.16
2018-01-18T09:13:51.943Z,5.22
2018-01-18T09:14:51.590Z,5.24
2018-01-18T09:15:51.902Z,5.23
2018-01-18T09:16:51.829Z,5.23
2018-01-18T09:17:51.845Z,5.29
2018-01-18T09:18:51.722Z,5.34
2018-01-18T09:19:51.899Z,5.35
2018-01-18T09:20:51.710Z,5.41
2018-01-18T09:21:51.954Z,5.4
2018-01-18T09:22:51.752Z,5.42
2018-01-18T09:23:51.612Z,5.52
2018-01-18T09:24:51.749Z,5.54
2018-01-18T09:25:51.936Z,5.58
2018-01-18T09:26:51.732Z,5.61
2018-01-18T09:27:51.993Z,5.61
2018-01-18T09:28:52.518Z,5.67
2018-01-18T09:29:51.884Z,5.66
2018-01-18T09:30:51.698Z,5.7
2018-01-18T09:31:53.204Z,5.72
2018-01-18T09:32:52.634Z,5.76
2018-01-18T09:33:51.755Z,5.77
2018-01-18T09:34:51.817Z,5.83
2018-01-18T09:35:51.618Z,5.88
2018-01-18T09:36:51.821Z,5.92
2018-01-18T09:37:52.250Z,5.91
2018-01-18T09:38:51.551Z,5.93
2018-01-18T09:39:51.707Z,5.99
2018-01-18T09:40:51.741Z,6.01
2018-01-18T09:41:52.110Z,6.02
2018-01-18T09:42:51.881Z,6.05
2018-01-18T09:43:51.646Z,6.05
2018-01-18T09:44:51.808Z,6.07
2018-01-18T09:45:51.838Z,6.07
2018-01-18T09:46:51.925Z,6.09
2018-01-18T09:47:51.799Z,6.09
2018-01-18T09:48:51.882Z,6.15
2018-01-18T09:49:51.758Z,6.18
2018-01-18T09:50:51.825Z,6.22
2018-01-18T09:51:51.694Z,6.24
2018-01-18T09:52:51.720Z,6.26
2018-01-18T09:53:51.869Z,6.3
2018-01-18T09:54:51.589Z,6.32
2018-01-18T09:55:51.864Z,6.39
2018-01-18T09:56:51.801Z,6.38
2018-01-18T09:57:51.982Z,6.4
2018-01-18T09:58:52.035Z,6.37
2018-01-18T09:59:51.878Z,6.39
2018-01-18T10:00:51.963Z,6.39
2018-01-18T10:01:51.788Z,6.4
2018-01-18T10:02:52.293Z,6.43
2018-01-18T10:03:51.928Z,6.42
2018-01-18T10:04:51.548Z,6.43
2018-01-18T10:05:51.827Z,6.42
2018-01-18T10:06:51.890Z,6.45
2018-01-18T10:07:51.749Z,6.47
2018-01-18T10:08:51.919Z,6.48
2018-01-18T10:09:51.813Z,6.45
2018-01-18T10:10:51.677Z,6.52
2018-01-18T10:11:51.960Z,6.53
2018-01-18T10:12:51.737Z,6.55
2018-01-18T10:13:51.911Z,6.56
2018-01-18T10:14:51.962Z,6.53
2018-01-18T10:15:51.763Z,6.53
2018-01-18T10:16:51.856Z,6.58
2018-01-18T10:17:51.715Z,6.56
2018-01-18T10:18:51.686Z,6.6
2018-01-18T10:19:51.950Z,6.6
2018-01-18T10:20:51.729Z,6.61
2018-01-18T10:21:51.852Z,6.63
2018-01-18T10:22:51.754Z,6.62
2018-01-18T10:23:51.920Z,6.61
2018-01-18T10:24:51.871Z,6.67
2018-01-18T10:25:51.713Z,6.69
2018-01-18T10:26:52.075Z,6.71
2018-01-18T10:27:51.953Z,6.71
2018-01-18T10:28:51.930Z,6.75
2018-01-18T10:29:51.845Z,6.83
2018-01-18T10:30:51.818Z,6.8
2018-01-18T10:31:52.055Z,6.83
2018-01-18T10:32:51.732Z,6.85
2018-01-18T10:33:51.941Z,6.89
2018-01-18T10:34:51.812Z,6.94
2018-01-18T10:35:53.362Z,7.01
2018-01-18T10:36:52.109Z,7.06
2018-01-18T10:37:51.873Z,7.14
2018-01-18T10:38:51.852Z,7.11
2018-01-18T10:39:52.015Z,7.19
2018-01-18T10:40:51.846Z,7.22
2018-01-18T10:41:52.030Z,7.27
2018-01-18T10:42:51.921Z,7.33
2018-01-18T10:43:51.930Z,7.37
2018-01-18T10:44:51.911Z,7.38
2018-01-18T10:45:52.028Z,7.41
2018-01-18T10:46:51.936Z,7.45
2018-01-18T10:47:52.121Z,7.44
2018-01-18T10:48:51.836Z,7.43
2018-01-18T10:49:51.957Z,7.45
2018-01-18T10:50:52.044Z,7.43
2018-01-18T10:51:52.954Z,7.46
2018-01-18T10:52:52.200Z,7.44
2018-01-18T10:53:51.911Z,7.44
2018-01-18T10:54:51.940Z,7.46
2018-01-18T10:55:51.874Z,7.51
2018-01-18T10:58:52.350Z,7.59
2018-01-18T10:59:51.922Z,7.59
2018-01-18T11:00:51.903Z,7.6
2018-01-18T11:01:52.075Z,7.65
2018-01-18T11:02:51.999Z,7.65
2018-01-18T11:03:52.193Z,7.66
2018-01-18T11:04:52.034Z,7.68
2018-01-18T11:05:51.994Z,7.76
2018-01-18T11:06:52.028Z,7.79
2018-01-18T11:07:51.977Z,7.87
2018-01-18T11:08:51.974Z,7.88
2018-01-18T11:09:51.832Z,7.92
2018-01-18T11:10:52.069Z,7.89
2018-01-18T11:11:51.973Z,7.98
2018-01-18T11:12:51.977Z,7.99
2018-01-18T11:13:52.018Z,8.07
2018-01-18T11:14:52.208Z,8.07
2018-01-18T11:15:52.327Z,8.08
2018-01-18T11:16:52.241Z,8.11
2018-01-18T11:17:52.680Z,8.1
2018-01-18T11:18:51.930Z,8.19
2018-01-18T11:19:51.887Z,8.16
2018-01-18T11:20:52.047Z,8.17
2018-01-18T11:21:52.109Z,8.15
2018-01-18T11:22:52.048Z,8.15
2018-01-18T11:23:51.975Z,8.12
2018-01-18T11:24:52.051Z,8.09
2018-01-18T11:25:51.857Z,8.09
2018-01-18T11:26:51.844Z,8.07
2018-01-18T11:27:52.059Z,8.02
2018-01-18T11:28:52.054Z,7.99
2018-01-18T11:29:50.903Z,7.94
2018-01-18T11:30:51.105Z,7.95
2018-01-18T11:31:51.213Z,7.93
2018-01-18T11:32:51.212Z,7.94
2018-01-18T11:33:51.005Z,7.95
2018-01-18T11:34:50.964Z,7.96
2018-01-18T11:35:51.118Z,7.96
2018-01-18T11:36:51.210Z,7.94
2018-01-18T11:37:51.418Z,7.96
2018-01-18T11:38:51.335Z,8.02
2018-01-18T11:39:51.563Z,8.08
2018-01-18T11:40:52.093Z,8.09
2018-01-18T11:41:52.079Z,8.15
2018-01-18T11:42:51.110Z,8.15
2018-01-18T11:43:51.169Z,8.19
2018-01-18T11:44:51.066Z,8.3
2018-01-18T11:45:51.788Z,8.35
2018-01-18T11:46:50.983Z,8.4
2018-01-18T11:47:51.095Z,8.47
2018-01-18T11:48:51.420Z,8.67
2018-01-18T11:49:51.282Z,8.65
2018-01-18T11:50:51.308Z,8.69
2018-01-18T11:51:51.007Z,8.76
2018-01-18T11:52:51.079Z,8.81
2018-01-18T11:53:51.188Z,8.9
2018-01-18T11:54:51.150Z,8.95
2018-01-18T11:55:51.107Z,8.98
2018-01-18T11:56:51.013Z,8.97
2018-01-18T11:57:51.048Z,8.95
2018-01-18T11:58:51.102Z,8.96
2018-01-18T11:59:51.280Z,9.05
2018-01-18T12:00:51.389Z,9.07
2018-01-18T12:01:51.075Z,9.09
2018-01-18T12:02:51.081Z,9.09
2018-01-18T12:03:51.236Z,9.15
2018-01-18T12:04:51.260Z,9.19
2018-01-18T12:05:51.038Z,9.21
2018-01-18T12:06:52.262Z,9.25
2018-01-18T12:07:51.191Z,9.24
2018-01-18T12:08:50.947Z,9.26
2018-01-18T12:09:50.939Z,9.26
2018-01-18T12:10:50.967Z,9.34
2018-01-18T12:11:51.146Z,9.32
2018-01-18T12:12:51.101Z,9.32
2018-01-18T12:13:53.062Z,9.3
2018-01-18T12:14:51.024Z,9.28
2018-01-18T12:16:00.560Z,9.26
2018-01-18T12:16:51.049Z,9.23
2018-01-18T12:17:51.008Z,9.24
2018-01-18T12:18:51.218Z,9.17
2018-01-18T12:19:51.067Z,9.14
2018-01-18T12:20:51.084Z,9.11
2018-01-18T12:21:51.252Z,9.03
2018-01-18T12:22:51.081Z,8.98
2018-01-18T12:23:51.098Z,8.92
2018-01-18T12:24:51.347Z,8.87
2018-01-18T12:25:51.199Z,8.81
2018-01-18T12:26:51.115Z,8.74
2018-01-18T12:27:51.125Z,8.7
2018-01-18T12:28:51.149Z,8.65
2018-01-18T12:29:51.145Z,8.62
2018-01-18T12:30:51.393Z,8.61
2018-01-18T12:31:51.432Z,8.56
2018-01-18T12:32:51.197Z,8.53
2018-01-18T12:33:51.310Z,8.47
2018-01-18T12:34:51.054Z,8.44
2018-01-18T12:35:51.612Z,8.39
2018-01-18T12:36:51.198Z,8.35
2018-01-18T12:37:51.325Z,8.33
2018-01-18T12:38:51.376Z,8.31
2018-01-18T12:39:51.233Z,8.28
2018-01-18T12:40:51.106Z,8.25
2018-01-18T12:41:51.294Z,8.22
2018-01-18T12:42:50.999Z,8.24
2018-01-18T12:43:51.196Z,8.21
2018-01-18T12:44:51.277Z,8.18
2018-01-18T12:45:51.027Z,8.17
2018-01-18T12:46:51.195Z,8.15
2018-01-18T12:47:51.120Z,8.14
2018-01-18T12:48:51.418Z,8.12
2018-01-18T12:49:51.040Z,8.12
2018-01-18T12:50:51.230Z,8.11
2018-01-18T12:51:51.408Z,8.09
2018-01-18T12:52:51.275Z,8.07
2018-01-18T12:53:51.746Z,8.07
2018-01-18T12:54:51.352Z,8.07
2018-01-18T12:55:51.188Z,8.03
2018-01-18T12:56:50.974Z,8.02
2018-01-18T12:57:50.993Z,7.99
2018-01-18T12:58:51.813Z,7.97
2018-01-18T12:59:51.249Z,7.97
2018-01-18T13:00:51.174Z,7.96
2018-01-18T13:01:51.453Z,7.94
2018-01-18T13:02:51.005Z,7.92
2018-01-18T13:03:51.243Z,7.93
2018-01-18T13:04:51.088Z,7.93
2018-01-18T13:05:51.297Z,7.91
2018-01-18T13:06:51.395Z,7.9
2018-01-18T13:07:51.310Z,7.91
2018-01-18T13:08:51.258Z,7.91
2018-01-18T13:09:51.602Z,7.92
2018-01-18T13:10:51.384Z,7.93
2018-01-18T13:11:51.362Z,7.92
2018-01-18T13:12:51.234Z,7.92
2018-01-18T13:13:51.160Z,7.94
2018-01-18T13:14:51.273Z,7.94
2018-01-18T13:15:51.161Z,7.96
2018-01-18T13:16:51.272Z,7.96
2018-01-18T13:17:51.321Z,8.01
2018-01-18T13:18:51.131Z,7.98
2018-01-18T13:19:51.213Z,8.02
2018-01-18T13:20:51.185Z,8.04
2018-01-18T13:21:51.140Z,8.03
2018-01-18T13:22:51.341Z,8.06
2018-01-18T13:23:51.335Z,8.08
2018-01-18T13:24:51.368Z,8.1
2018-01-18T13:25:51.388Z,8.11